Kaneohe Bay MCAS (Marion E. Carl Field) Airport Kaneohe US
ICAO: PHNG
IATA:
Category: Medium
Scheduled Services:

Elevation: 24 ft
TransAlt. 18000 ft.

Airport Communications:
APP/DEP:125
ATIS:28.45
CLNC DEL:29.47
CTAF:120.7
GND:38.28
PMSV METRO:34.46
PTD:30.72
TWR:120.7

PHNG Zoom In..

If you have problems with the map follow the link
https://www.worldairports.se/pages/airport.php?
ICAO=PHNG

Runways:

(A) RW 04 length 7771 ft width 200 ft
---- / hdg 41

(B) RW 22 length 7771 ft width 200 ft
---- / hdg 221

Location; PHNG
Day. 14 / Time. 17.04 Zulu
* Altimeter: 29.99
* Temperature: 24° c. 75.2°f.
* Wind from: 080° Speed 10 kn with Gusts up to 18 kn.
Dewpoint: 21° c.
Visibility: 10 Statute Miles.
Clouds: Few 2100 ft.
Clouds: Broken 3900 ft.
Clouds: Overcast 6000 ft.

PHNG 141704Z 08010G18KT 10SM FEW021 BKN039 OVC060 24/21 A2999 RMK AO2 T02440206 $


Wind From 080°
Speed 10 kn.

 
 
jpsmedia worldairports.se 2019   terms of use